ACV weather

California Redwood Coast-Humboldt County Airport
Arcata/Eureka, California, United States

Public forecast

Using degrees Fahrenheit for public forecast. Weather courtesy of forecast.io.

Current aviation weather report (METAR) for California Redwood Coast-Humboldt County Airport

Retrieved 2019/12/10 01:43 UTC (8 minutes ago):

KACV 100143Z AUTO 00000KT 10SM BKN013 08/06 A3019 RMK AO2 T00780061

Aviation forecast (TAF) for California Redwood Coast-Humboldt County Airport

Retrieved 2019-12-10 00:30 UTC (1 hour ago):

TAF KACV 092327Z 1000/1024 32004KT P6SM FEW011 FM100200 00000KT 5SM BR SCT002 BKN007 FM101400 12004KT P6SM FEW006 BKN100 FM101800 15007KT P6SM VCSH OVC050 FM102200 18010KT 2SM -SHRA SCT006 OVC015